sensor_id;sensor_type;location;lat;lon;timestamp;temperature;humidity
41985;DHT22;28319;48.116;10.818;2022-09-09T00:00:55;15.70;99.90
41985;DHT22;28319;48.116;10.818;2022-09-09T00:06:08;15.70;99.90
41985;DHT22;28319;48.116;10.818;2022-09-09T00:11:20;15.70;99.90
41985;DHT22;28319;48.116;10.818;2022-09-09T00:16:27;15.60;99.90
41985;DHT22;28319;48.116;10.818;2022-09-09T00:21:35;15.70;99.90
41985;DHT22;28319;48.116;10.818;2022-09-09T00:26:40;15.60;99.90
41985;DHT22;28319;48.116;10.818;2022-09-09T00:31:44;15.60;99.90
41985;DHT22;28319;48.116;10.818;2022-09-09T00:36:50;15.50;99.90
41985;DHT22;28319;48.116;10.818;2022-09-09T00:42:09;15.60;99.90
41985;DHT22;28319;48.116;10.818;2022-09-09T00:47:30;15.70;99.90
41985;DHT22;28319;48.116;10.818;2022-09-09T00:52:43;15.70;99.90
41985;DHT22;28319;48.116;10.818;2022-09-09T00:57:51;15.70;99.90
41985;DHT22;28319;48.116;10.818;2022-09-09T01:03:10;15.70;99.90
41985;DHT22;28319;48.116;10.818;2022-09-09T01:08:34;15.70;99.90
41985;DHT22;28319;48.116;10.818;2022-09-09T01:13:42;15.70;99.90
41985;DHT22;28319;48.116;10.818;2022-09-09T01:18:46;15.50;99.90
41985;DHT22;28319;48.116;10.818;2022-09-09T01:24:08;15.60;99.90
41985;DHT22;28319;48.116;10.818;2022-09-09T01:29:18;15.60;99.90
41985;DHT22;28319;48.116;10.818;2022-09-09T01:34:24;15.60;99.90
41985;DHT22;28319;48.116;10.818;2022-09-09T01:39:26;15.60;99.90
41985;DHT22;28319;48.116;10.818;2022-09-09T01:44:30;15.50;99.90
41985;DHT22;28319;48.116;10.818;2022-09-09T01:49:33;15.50;99.90
41985;DHT22;28319;48.116;10.818;2022-09-09T01:54:35;15.40;99.90
41985;DHT22;28319;48.116;10.818;2022-09-09T01:59:48;15.40;99.90
41985;DHT22;28319;48.116;10.818;2022-09-09T02:04:53;15.40;99.90
41985;DHT22;28319;48.116;10.818;2022-09-09T02:10:04;15.30;99.90
41985;DHT22;28319;48.116;10.818;2022-09-09T02:15:19;15.20;99.90
41985;DHT22;28319;48.116;10.818;2022-09-09T02:20:23;15.10;99.90
41985;DHT22;28319;48.116;10.818;2022-09-09T02:25:28;15.10;99.90
41985;DHT22;28319;48.116;10.818;2022-09-09T02:30:33;15.10;99.90
41985;DHT22;28319;48.116;10.818;2022-09-09T02:35:37;15.20;99.90
41985;DHT22;28319;48.116;10.818;2022-09-09T02:40:39;15.10;99.90
41985;DHT22;28319;48.116;10.818;2022-09-09T02:45:48;15.10;99.90
41985;DHT22;28319;48.116;10.818;2022-09-09T02:50:54;15.10;99.90
41985;DHT22;28319;48.116;10.818;2022-09-09T02:56:01;15.10;99.90
41985;DHT22;28319;48.116;10.818;2022-09-09T03:01:07;15.00;99.90
41985;DHT22;28319;48.116;10.818;2022-09-09T03:06:09;14.80;99.90
41985;DHT22;28319;48.116;10.818;2022-09-09T03:11:12;14.80;99.90
41985;DHT22;28319;48.116;10.818;2022-09-09T03:16:16;14.70;99.90
41985;DHT22;28319;48.116;10.818;2022-09-09T03:21:18;14.70;99.90
41985;DHT22;28319;48.116;10.818;2022-09-09T03:26:20;14.80;99.90
41985;DHT22;28319;48.116;10.818;2022-09-09T03:31:23;14.80;99.90
41985;DHT22;28319;48.116;10.818;2022-09-09T03:36:26;14.80;99.90
41985;DHT22;28319;48.116;10.818;2022-09-09T03:41:29;14.80;99.90
41985;DHT22;28319;48.116;10.818;2022-09-09T03:46:32;14.70;99.90
41985;DHT22;28319;48.116;10.818;2022-09-09T03:51:34;14.70;99.90
41985;DHT22;28319;48.116;10.818;2022-09-09T03:56:37;14.60;99.90
41985;DHT22;28319;48.116;10.818;2022-09-09T04:01:41;14.60;99.90
41985;DHT22;28319;48.116;10.818;2022-09-09T04:06:43;14.60;99.90
41985;DHT22;28319;48.116;10.818;2022-09-09T04:11:45;14.60;99.90
41985;DHT22;28319;48.116;10.818;2022-09-09T04:16:48;14.60;99.90
41985;DHT22;28319;48.116;10.818;2022-09-09T04:21:50;14.60;99.90
41985;DHT22;28319;48.116;10.818;2022-09-09T04:26:52;14.60;99.90
41985;DHT22;28319;48.116;10.818;2022-09-09T04:31:55;14.50;99.90
41985;DHT22;28319;48.116;10.818;2022-09-09T04:36:57;14.60;99.90
41985;DHT22;28319;48.116;10.818;2022-09-09T04:42:00;14.60;99.90
41985;DHT22;28319;48.116;10.818;2022-09-09T04:47:05;14.60;99.90
41985;DHT22;28319;48.116;10.818;2022-09-09T04:52:07;14.60;99.90
41985;DHT22;28319;48.116;10.818;2022-09-09T04:57:10;14.60;99.90
41985;DHT22;28319;48.116;10.818;2022-09-09T05:02:14;14.70;99.90
41985;DHT22;28319;48.116;10.818;2022-09-09T05:07:16;14.70;99.90
41985;DHT22;28319;48.116;10.818;2022-09-09T05:12:18;14.80;99.90
41985;DHT22;28319;48.116;10.818;2022-09-09T05:17:21;14.90;99.90
41985;DHT22;28319;48.116;10.818;2022-09-09T05:22:23;15.00;99.90
41985;DHT22;28319;48.116;10.818;2022-09-09T05:27:25;15.00;99.90
41985;DHT22;28319;48.116;10.818;2022-09-09T05:32:29;15.10;99.90
41985;DHT22;28319;48.116;10.818;2022-09-09T05:37:32;15.00;99.90
41985;DHT22;28319;48.116;10.818;2022-09-09T05:42:35;15.00;99.90
41985;DHT22;28319;48.116;10.818;2022-09-09T05:47:39;15.10;99.90
41985;DHT22;28319;48.116;10.818;2022-09-09T05:52:40;15.00;99.90
41985;DHT22;28319;48.116;10.818;2022-09-09T05:57:48;15.00;99.90
41985;DHT22;28319;48.116;10.818;2022-09-09T06:02:53;15.00;99.90
41985;DHT22;28319;48.116;10.818;2022-09-09T06:07:56;15.10;99.90
41985;DHT22;28319;48.116;10.818;2022-09-09T06:12:57;15.20;99.90
41985;DHT22;28319;48.116;10.818;2022-09-09T06:18:01;15.20;99.90
41985;DHT22;28319;48.116;10.818;2022-09-09T06:23:03;15.30;99.90
41985;DHT22;28319;48.116;10.818;2022-09-09T06:28:05;15.30;99.90
41985;DHT22;28319;48.116;10.818;2022-09-09T06:33:08;15.50;99.90
41985;DHT22;28319;48.116;10.818;2022-09-09T06:38:10;15.50;99.90
41985;DHT22;28319;48.116;10.818;2022-09-09T06:43:12;15.50;99.90
41985;DHT22;28319;48.116;10.818;2022-09-09T06:48:16;15.50;99.90
41985;DHT22;28319;48.116;10.818;2022-09-09T06:53:18;15.60;99.90
41985;DHT22;28319;48.116;10.818;2022-09-09T06:58:21;15.60;99.90
41985;DHT22;28319;48.116;10.818;2022-09-09T07:03:25;15.60;99.90
41985;DHT22;28319;48.116;10.818;2022-09-09T07:08:28;15.70;99.90
41985;DHT22;28319;48.116;10.818;2022-09-09T07:13:30;15.60;99.90
41985;DHT22;28319;48.116;10.818;2022-09-09T07:18:34;15.60;99.90
41985;DHT22;28319;48.116;10.818;2022-09-09T07:23:36;15.70;99.90
41985;DHT22;28319;48.116;10.818;2022-09-09T07:28:39;15.80;99.90
41985;DHT22;28319;48.116;10.818;2022-09-09T07:33:43;15.90;99.90
41985;DHT22;28319;48.116;10.818;2022-09-09T07:38:47;15.90;99.90
41985;DHT22;28319;48.116;10.818;2022-09-09T07:43:50;16.10;99.90
41985;DHT22;28319;48.116;10.818;2022-09-09T07:48:56;16.20;99.90
41985;DHT22;28319;48.116;10.818;2022-09-09T07:54:02;16.30;99.90
41985;DHT22;28319;48.116;10.818;2022-09-09T07:59:04;16.40;99.90
41985;DHT22;28319;48.116;10.818;2022-09-09T08:04:10;16.40;99.90
41985;DHT22;28319;48.116;10.818;2022-09-09T08:09:16;16.40;99.90
41985;DHT22;28319;48.116;10.818;2022-09-09T08:14:18;16.50;99.90
41985;DHT22;28319;48.116;10.818;2022-09-09T08:19:22;16.40;99.90
41985;DHT22;28319;48.116;10.818;2022-09-09T08:24:24;16.40;99.90
41985;DHT22;28319;48.116;10.818;2022-09-09T08:29:26;16.40;99.90
41985;DHT22;28319;48.116;10.818;2022-09-09T08:34:30;16.50;99.90
41985;DHT22;28319;48.116;10.818;2022-09-09T08:39:32;16.50;99.90
41985;DHT22;28319;48.116;10.818;2022-09-09T08:44:43;16.60;99.90
41985;DHT22;28319;48.116;10.818;2022-09-09T08:50:01;16.60;99.90
41985;DHT22;28319;48.116;10.818;2022-09-09T08:55:14;16.70;99.90
41985;DHT22;28319;48.116;10.818;2022-09-09T09:00:20;16.60;99.90
41985;DHT22;28319;48.116;10.818;2022-09-09T09:05:30;16.70;99.90
41985;DHT22;28319;48.116;10.818;2022-09-09T09:10:43;16.80;99.90
41985;DHT22;28319;48.116;10.818;2022-09-09T09:15:52;16.90;99.90
41985;DHT22;28319;48.116;10.818;2022-09-09T09:21:04;16.90;99.90
41985;DHT22;28319;48.116;10.818;2022-09-09T09:26:11;16.90;99.90
41985;DHT22;28319;48.116;10.818;2022-09-09T09:31:13;16.90;99.90
41985;DHT22;28319;48.116;10.818;2022-09-09T09:36:17;16.90;99.90
41985;DHT22;28319;48.116;10.818;2022-09-09T09:41:29;16.90;99.90
41985;DHT22;28319;48.116;10.818;2022-09-09T09:46:32;17.00;99.90
41985;DHT22;28319;48.116;10.818;2022-09-09T09:51:35;17.00;99.90
41985;DHT22;28319;48.116;10.818;2022-09-09T09:56:38;16.90;99.90
41985;DHT22;28319;48.116;10.818;2022-09-09T10:01:40;16.90;99.90
41985;DHT22;28319;48.116;10.818;2022-09-09T10:06:44;17.00;99.90
41985;DHT22;28319;48.116;10.818;2022-09-09T10:11:52;17.00;99.90
41985;DHT22;28319;48.116;10.818;2022-09-09T10:17:08;17.10;99.90
41985;DHT22;28319;48.116;10.818;2022-09-09T10:22:25;17.10;99.90
41985;DHT22;28319;48.116;10.818;2022-09-09T10:27:36;17.20;99.90
41985;DHT22;28319;48.116;10.818;2022-09-09T10:32:45;17.40;99.90
41985;DHT22;28319;48.116;10.818;2022-09-09T10:38:10;17.40;99.90
41985;DHT22;28319;48.116;10.818;2022-09-09T10:43:23;17.40;99.90
41985;DHT22;28319;48.116;10.818;2022-09-09T10:48:40;17.00;99.90
41985;DHT22;28319;48.116;10.818;2022-09-09T10:53:56;16.90;99.90
41985;DHT22;28319;48.116;10.818;2022-09-09T10:59:09;16.80;99.90
41985;DHT22;28319;48.116;10.818;2022-09-09T11:04:17;16.90;99.90
41985;DHT22;28319;48.116;10.818;2022-09-09T11:09:26;16.90;99.90
41985;DHT22;28319;48.116;10.818;2022-09-09T11:14:32;17.00;99.90
41985;DHT22;28319;48.116;10.818;2022-09-09T11:19:39;17.00;99.90
41985;DHT22;28319;48.116;10.818;2022-09-09T11:24:47;17.10;99.90
41985;DHT22;28319;48.116;10.818;2022-09-09T11:30:10;17.20;99.90
41985;DHT22;28319;48.116;10.818;2022-09-09T11:35:29;17.40;99.90
41985;DHT22;28319;48.116;10.818;2022-09-09T11:40:34;17.40;99.90
41985;DHT22;28319;48.116;10.818;2022-09-09T11:45:36;17.40;99.90
41985;DHT22;28319;48.116;10.818;2022-09-09T11:50:38;17.60;99.90
41985;DHT22;28319;48.116;10.818;2022-09-09T11:55:42;17.70;99.90
41985;DHT22;28319;48.116;10.818;2022-09-09T12:00:45;17.90;99.90
41985;DHT22;28319;48.116;10.818;2022-09-09T12:05:47;18.20;99.90
41985;DHT22;28319;48.116;10.818;2022-09-09T12:10:55;18.30;99.90
41985;DHT22;28319;48.116;10.818;2022-09-09T12:15:59;18.30;99.90
41985;DHT22;28319;48.116;10.818;2022-09-09T12:21:07;18.30;99.90
41985;DHT22;28319;48.116;10.818;2022-09-09T12:26:30;18.40;99.90
41985;DHT22;28319;48.116;10.818;2022-09-09T12:31:39;18.50;99.90
41985;DHT22;28319;48.116;10.818;2022-09-09T12:36:47;18.40;99.90
41985;DHT22;28319;48.116;10.818;2022-09-09T12:41:53;18.50;99.90
41985;DHT22;28319;48.116;10.818;2022-09-09T12:46:59;18.60;99.90
41985;DHT22;28319;48.116;10.818;2022-09-09T12:52:04;19.20;99.90
41985;DHT22;28319;48.116;10.818;2022-09-09T12:57:11;20.10;99.70
41985;DHT22;28319;48.116;10.818;2022-09-09T13:02:21;20.20;98.60
41985;DHT22;28319;48.116;10.818;2022-09-09T13:07:24;19.80;98.30
41985;DHT22;28319;48.116;10.818;2022-09-09T13:12:28;19.70;99.00
41985;DHT22;28319;48.116;10.818;2022-09-09T13:17:30;19.70;99.00
41985;DHT22;28319;48.116;10.818;2022-09-09T13:22:35;19.80;99.00
41985;DHT22;28319;48.116;10.818;2022-09-09T13:27:41;20.20;98.40
41985;DHT22;28319;48.116;10.818;2022-09-09T13:32:43;20.80;97.80
41985;DHT22;28319;48.116;10.818;2022-09-09T13:37:45;20.40;96.30
41985;DHT22;28319;48.116;10.818;2022-09-09T13:42:52;20.40;96.60
41985;DHT22;28319;48.116;10.818;2022-09-09T13:47:54;19.90;96.90
41985;DHT22;28319;48.116;10.818;2022-09-09T13:52:58;19.60;97.40
41985;DHT22;28319;48.116;10.818;2022-09-09T13:58:03;19.40;97.80
41985;DHT22;28319;48.116;10.818;2022-09-09T14:03:05;19.20;97.80
41985;DHT22;28319;48.116;10.818;2022-09-09T14:08:23;19.20;98.30
41985;DHT22;28319;48.116;10.818;2022-09-09T14:13:27;19.50;99.90
41985;DHT22;28319;48.116;10.818;2022-09-09T14:18:29;20.20;99.90
41985;DHT22;28319;48.116;10.818;2022-09-09T14:23:31;20.20;97.80
41985;DHT22;28319;48.116;10.818;2022-09-09T14:28:35;20.00;96.40
41985;DHT22;28319;48.116;10.818;2022-09-09T14:33:38;20.00;96.30
41985;DHT22;28319;48.116;10.818;2022-09-09T14:38:39;19.90;96.30
41985;DHT22;28319;48.116;10.818;2022-09-09T14:43:44;19.90;97.10
41985;DHT22;28319;48.116;10.818;2022-09-09T14:48:46;19.70;97.00
41985;DHT22;28319;48.116;10.818;2022-09-09T14:53:51;19.60;96.90
41985;DHT22;28319;48.116;10.818;2022-09-09T14:58:56;19.60;96.90
41985;DHT22;28319;48.116;10.818;2022-09-09T15:04:00;19.80;96.00
41985;DHT22;28319;48.116;10.818;2022-09-09T15:09:03;19.80;96.40
41985;DHT22;28319;48.116;10.818;2022-09-09T15:14:08;19.90;96.20
41985;DHT22;28319;48.116;10.818;2022-09-09T15:19:12;19.80;96.40
41985;DHT22;28319;48.116;10.818;2022-09-09T15:24:14;19.50;95.80
41985;DHT22;28319;48.116;10.818;2022-09-09T15:29:18;19.40;95.50
41985;DHT22;28319;48.116;10.818;2022-09-09T15:34:20;19.40;96.10
41985;DHT22;28319;48.116;10.818;2022-09-09T15:39:22;19.40;96.30
41985;DHT22;28319;48.116;10.818;2022-09-09T15:44:26;19.40;96.60
41985;DHT22;28319;48.116;10.818;2022-09-09T15:49:28;19.40;96.70
41985;DHT22;28319;48.116;10.818;2022-09-09T15:54:32;19.40;97.10
41985;DHT22;28319;48.116;10.818;2022-09-09T15:59:36;19.40;96.70
41985;DHT22;28319;48.116;10.818;2022-09-09T16:04:38;19.40;96.30
41985;DHT22;28319;48.116;10.818;2022-09-09T16:09:40;19.40;96.50
41985;DHT22;28319;48.116;10.818;2022-09-09T16:14:45;19.30;96.60
41985;DHT22;28319;48.116;10.818;2022-09-09T16:19:47;19.20;96.90
41985;DHT22;28319;48.116;10.818;2022-09-09T16:24:49;19.20;97.00
41985;DHT22;28319;48.116;10.818;2022-09-09T16:29:53;19.20;97.10
41985;DHT22;28319;48.116;10.818;2022-09-09T16:34:55;19.20;97.20
41985;DHT22;28319;48.116;10.818;2022-09-09T16:39:57;19.20;97.00
41985;DHT22;28319;48.116;10.818;2022-09-09T16:45:01;19.20;97.00
41985;DHT22;28319;48.116;10.818;2022-09-09T16:50:03;19.20;97.70
41985;DHT22;28319;48.116;10.818;2022-09-09T16:55:06;19.10;97.00
41985;DHT22;28319;48.116;10.818;2022-09-09T17:00:11;19.00;97.40
41985;DHT22;28319;48.116;10.818;2022-09-09T17:05:13;18.80;96.80
41985;DHT22;28319;48.116;10.818;2022-09-09T17:10:15;18.70;96.60
41985;DHT22;28319;48.116;10.818;2022-09-09T17:15:19;18.60;96.30
41985;DHT22;28319;48.116;10.818;2022-09-09T17:20:21;18.50;96.60
41985;DHT22;28319;48.116;10.818;2022-09-09T17:25:23;18.40;97.30
41985;DHT22;28319;48.116;10.818;2022-09-09T17:30:27;18.30;97.40
41985;DHT22;28319;48.116;10.818;2022-09-09T17:35:29;18.30;97.80
41985;DHT22;28319;48.116;10.818;2022-09-09T17:40:31;18.20;97.80
41985;DHT22;28319;48.116;10.818;2022-09-09T17:45:34;18.10;97.60
41985;DHT22;28319;48.116;10.818;2022-09-09T17:50:36;17.90;97.90
41985;DHT22;28319;48.116;10.818;2022-09-09T17:55:38;17.70;98.50
41985;DHT22;28319;48.116;10.818;2022-09-09T18:00:42;17.60;98.80
41985;DHT22;28319;48.116;10.818;2022-09-09T18:05:43;17.40;98.60
41985;DHT22;28319;48.116;10.818;2022-09-09T18:10:51;17.40;98.90
41985;DHT22;28319;48.116;10.818;2022-09-09T18:15:57;17.30;99.30
41985;DHT22;28319;48.116;10.818;2022-09-09T18:20:59;17.30;99.40
41985;DHT22;28319;48.116;10.818;2022-09-09T18:26:06;17.10;99.00
41985;DHT22;28319;48.116;10.818;2022-09-09T18:31:13;17.20;98.50
41985;DHT22;28319;48.116;10.818;2022-09-09T18:36:17;17.20;98.30
41985;DHT22;28319;48.116;10.818;2022-09-09T18:41:21;17.10;97.90
41985;DHT22;28319;48.116;10.818;2022-09-09T18:46:27;17.30;98.70
41985;DHT22;28319;48.116;10.818;2022-09-09T18:51:29;17.30;97.90
41985;DHT22;28319;48.116;10.818;2022-09-09T18:56:33;17.10;98.90
41985;DHT22;28319;48.116;10.818;2022-09-09T19:01:37;17.10;98.70
41985;DHT22;28319;48.116;10.818;2022-09-09T19:06:41;16.80;98.80
41985;DHT22;28319;48.116;10.818;2022-09-09T19:11:44;16.90;99.50
41985;DHT22;28319;48.116;10.818;2022-09-09T19:16:47;16.90;99.50
41985;DHT22;28319;48.116;10.818;2022-09-09T19:21:49;17.00;99.40
41985;DHT22;28319;48.116;10.818;2022-09-09T19:26:53;16.90;99.40
41985;DHT22;28319;48.116;10.818;2022-09-09T19:31:59;16.70;99.60
41985;DHT22;28319;48.116;10.818;2022-09-09T19:37:01;16.60;99.80
41985;DHT22;28319;48.116;10.818;2022-09-09T19:42:03;16.70;99.80
41985;DHT22;28319;48.116;10.818;2022-09-09T19:47:07;16.60;99.70
41985;DHT22;28319;48.116;10.818;2022-09-09T19:52:09;16.60;99.80
41985;DHT22;28319;48.116;10.818;2022-09-09T19:57:11;16.60;99.60
41985;DHT22;28319;48.116;10.818;2022-09-09T20:02:14;16.60;99.90
41985;DHT22;28319;48.116;10.818;2022-09-09T20:07:16;16.60;99.90
41985;DHT22;28319;48.116;10.818;2022-09-09T20:12:19;16.60;99.90
41985;DHT22;28319;48.116;10.818;2022-09-09T20:17:22;16.60;99.90
41985;DHT22;28319;48.116;10.818;2022-09-09T20:22:24;16.50;99.90
41985;DHT22;28319;48.116;10.818;2022-09-09T20:27:27;16.50;99.90
41985;DHT22;28319;48.116;10.818;2022-09-09T20:32:30;16.50;99.70
41985;DHT22;28319;48.116;10.818;2022-09-09T20:37:32;16.40;99.90
41985;DHT22;28319;48.116;10.818;2022-09-09T20:42:34;16.30;99.90
41985;DHT22;28319;48.116;10.818;2022-09-09T20:47:38;16.30;99.90
41985;DHT22;28319;48.116;10.818;2022-09-09T20:52:40;16.00;99.90
41985;DHT22;28319;48.116;10.818;2022-09-09T20:57:42;16.00;99.90
41985;DHT22;28319;48.116;10.818;2022-09-09T21:02:46;16.00;99.90
41985;DHT22;28319;48.116;10.818;2022-09-09T21:07:47;15.80;99.90
41985;DHT22;28319;48.116;10.818;2022-09-09T21:12:49;15.80;99.90
41985;DHT22;28319;48.116;10.818;2022-09-09T21:17:53;15.70;99.90
41985;DHT22;28319;48.116;10.818;2022-09-09T21:22:55;15.60;99.90
41985;DHT22;28319;48.116;10.818;2022-09-09T21:27:57;15.60;99.90
41985;DHT22;28319;48.116;10.818;2022-09-09T21:33:01;15.50;99.90
41985;DHT22;28319;48.116;10.818;2022-09-09T21:38:04;15.40;99.90
41985;DHT22;28319;48.116;10.818;2022-09-09T21:43:07;15.30;99.90
41985;DHT22;28319;48.116;10.818;2022-09-09T21:48:14;15.20;99.90
41985;DHT22;28319;48.116;10.818;2022-09-09T21:53:16;15.00;99.90
41985;DHT22;28319;48.116;10.818;2022-09-09T21:58:19;14.90;99.90
41985;DHT22;28319;48.116;10.818;2022-09-09T22:03:23;14.70;99.90
41985;DHT22;28319;48.116;10.818;2022-09-09T22:08:25;14.60;99.90
41985;DHT22;28319;48.116;10.818;2022-09-09T22:13:27;14.60;99.90
41985;DHT22;28319;48.116;10.818;2022-09-09T22:18:31;14.50;99.90
41985;DHT22;28319;48.116;10.818;2022-09-09T22:23:34;14.30;99.90
41985;DHT22;28319;48.116;10.818;2022-09-09T22:28:37;14.30;99.90
41985;DHT22;28319;48.116;10.818;2022-09-09T22:33:41;14.20;99.90
41985;DHT22;28319;48.116;10.818;2022-09-09T22:38:43;14.20;99.90
41985;DHT22;28319;48.116;10.818;2022-09-09T22:43:46;14.20;99.90
41985;DHT22;28319;48.116;10.818;2022-09-09T22:48:50;14.10;99.90
41985;DHT22;28319;48.116;10.818;2022-09-09T22:53:52;14.10;99.90
41985;DHT22;28319;48.116;10.818;2022-09-09T22:58:55;14.10;99.90
41985;DHT22;28319;48.116;10.818;2022-09-09T23:03:59;14.10;99.90
41985;DHT22;28319;48.116;10.818;2022-09-09T23:09:02;14.00;99.90
41985;DHT22;28319;48.116;10.818;2022-09-09T23:14:09;13.90;99.90
41985;DHT22;28319;48.116;10.818;2022-09-09T23:19:15;14.00;99.90
41985;DHT22;28319;48.116;10.818;2022-09-09T23:24:17;13.80;99.90
41985;DHT22;28319;48.116;10.818;2022-09-09T23:29:19;13.80;99.90
41985;DHT22;28319;48.116;10.818;2022-09-09T23:34:23;13.80;99.90
41985;DHT22;28319;48.116;10.818;2022-09-09T23:39:26;13.80;99.90
41985;DHT22;28319;48.116;10.818;2022-09-09T23:44:28;13.90;99.90
41985;DHT22;28319;48.116;10.818;2022-09-09T23:49:32;13.80;99.90
41985;DHT22;28319;48.116;10.818;2022-09-09T23:54:35;13.60;99.90
41985;DHT22;28319;48.116;10.818;2022-09-09T23:59:37;13.60;99.90
